Time;durP1;ratioP1;P1;durP2;ratioP2;P2;SDS_P1;SDS_P2;PMS_P1;PMS_P2;Temp;Humidity;BMP_temperature;BMP_pressure;BME280_temperature;BME280_humidity;BME280_pressure;Samples;Min_cycle;Max_cycle;Signal;HPM_P1;HPM_P2
2022/05/08 00:00:30;;;;;;;15.13;8.57;;;16.60;99.90;;;;;;5054675;28;20036;-50
2022/05/08 00:02:57;;;;;;;32.58;10.57;;;16.50;99.90;;;;;;5054475;28;20439;-50
2022/05/08 00:05:24;;;;;;;18.15;8.95;;;16.50;99.90;;;;;;5054576;28;20480;-49
2022/05/08 00:07:49;;;;;;;19.40;8.93;;;16.40;99.90;;;;;;5054385;28;20037;-49
2022/05/08 00:10:15;;;;;;;15.45;9.10;;;16.40;99.90;;;;;;5054537;28;20033;-49
2022/05/08 00:12:41;;;;;;;17.85;9.90;;;16.40;99.90;;;;;;5052307;28;20045;-49
2022/05/08 00:15:07;;;;;;;22.92;10.40;;;16.30;99.90;;;;;;5054640;28;20033;-50
2022/05/08 00:17:36;;;;;;;19.88;10.48;;;16.10;99.90;;;;;;5035883;28;20106;-49
2022/05/08 00:20:05;;;;;;;17.67;9.60;;;16.10;99.90;;;;;;5052360;28;20132;-50
2022/05/08 00:22:31;;;;;;;19.25;9.90;;;15.80;99.90;;;;;;5030920;28;20053;-49
2022/05/08 00:24:56;;;;;;;14.48;9.43;;;15.60;99.90;;;;;;5012112;28;20401;-49
2022/05/08 00:27:22;;;;;;;12.73;8.85;;;15.30;99.90;;;;;;5028525;28;20046;-50
2022/05/08 00:29:48;;;;;;;15.68;8.23;;;15.20;99.90;;;;;;5012243;28;20032;-50
2022/05/08 00:32:14;;;;;;;17.27;9.00;;;15.20;99.90;;;;;;4995737;28;20173;-50
2022/05/08 00:34:39;;;;;;;13.63;8.43;;;15.20;99.90;;;;;;4995761;28;20075;-49
2022/05/08 00:37:05;;;;;;;13.07;8.88;;;15.30;99.90;;;;;;4995500;28;20069;-49
2022/05/08 00:39:32;;;;;;;11.18;8.75;;;15.20;99.90;;;;;;5012226;28;20036;-49
2022/05/08 00:41:59;;;;;;;16.50;7.97;;;15.10;99.90;;;;;;4995586;28;20553;-50
2022/05/08 00:44:25;;;;;;;17.40;8.95;;;15.20;99.90;;;;;;5011996;28;20555;-50
2022/05/08 00:46:51;;;;;;;13.15;9.23;;;15.00;99.90;;;;;;5012005;28;20025;-49
2022/05/08 00:49:16;;;;;;;15.52;9.43;;;15.20;99.90;;;;;;5011980;28;20053;-50
2022/05/08 00:51:48;;;;;;;10.93;8.43;;;15.00;99.90;;;;;;5011833;28;20030;-49
2022/05/08 00:54:16;;;;;;;12.48;8.77;;;14.90;99.90;;;;;;5029630;28;20119;-50
2022/05/08 00:56:42;;;;;;;13.45;9.23;;;14.80;99.90;;;;;;5033705;28;20079;-50
2022/05/08 00:59:09;;;;;;;11.45;8.10;;;14.70;99.90;;;;;;5033594;28;20022;-49
2022/05/08 01:01:35;;;;;;;10.88;8.10;;;;;;;;;;5033564;28;20542;-49
2022/05/08 01:04:01;;;;;;;12.35;8.38;;;;;;;;;;5031442;28;20044;-49
2022/05/08 01:06:29;;;;;;;11.23;8.10;;;14.60;99.90;;;;;;5031379;28;20041;-49
2022/05/08 01:08:55;;;;;;;13.88;7.72;;;14.60;99.90;;;;;;5031161;28;20067;-49
2022/05/08 01:11:21;;;;;;;14.55;8.45;;;14.80;99.90;;;;;;5030733;28;20064;-49
2022/05/08 01:13:47;;;;;;;10.57;7.65;;;14.80;99.90;;;;;;5031179;28;20033;-49
2022/05/08 01:16:18;;;;;;;11.77;7.30;;;15.00;99.90;;;;;;5014655;28;20553;-50
2022/05/08 01:18:46;;;;;;;13.25;7.82;;;14.90;99.90;;;;;;5047755;28;20034;-49
2022/05/08 01:21:17;;;;;;;12.82;8.32;;;15.10;99.90;;;;;;5031073;28;20079;-49
2022/05/08 01:23:44;;;;;;;12.85;7.75;;;15.30;99.90;;;;;;5031045;28;20030;-50
2022/05/08 01:26:10;;;;;;;15.48;8.02;;;15.30;99.90;;;;;;5030989;28;20042;-49
2022/05/08 01:28:36;;;;;;;12.63;8.20;;;15.30;99.90;;;;;;5031127;28;20516;-50
2022/05/08 01:31:02;;;;;;;14.52;7.75;;;15.40;99.90;;;;;;5031075;28;20025;-49
2022/05/08 01:33:28;;;;;;;9.65;7.75;;;15.40;99.90;;;;;;5030716;28;20144;-49
2022/05/08 01:35:56;;;;;;;12.10;7.90;;;15.20;99.90;;;;;;5031109;28;20112;-49
2022/05/08 01:38:23;;;;;;;8.75;7.32;;;15.20;99.90;;;;;;5032764;28;20556;-49
2022/05/08 01:40:50;;;;;;;10.27;7.65;;;15.20;99.90;;;;;;5033231;28;20059;-50
2022/05/08 01:43:16;;;;;;;12.45;7.78;;;15.30;99.90;;;;;;5032920;28;20030;-49
2022/05/08 01:45:42;;;;;;;11.68;7.30;;;15.10;99.90;;;;;;5033282;28;20025;-49
2022/05/08 01:48:23;;;;;;;11.65;8.07;;;15.00;99.90;;;;;;5031249;28;20520;-49
2022/05/08 01:50:59;;;;;;;11.10;7.15;;;;;;;;;;5033073;28;20032;-49
2022/05/08 01:53:35;;;;;;;15.35;8.15;;;;;;;;;;5032432;28;20052;-49
2022/05/08 01:56:02;;;;;;;12.00;7.47;;;;;;;;;;5032994;28;20354;-49
2022/05/08 01:58:29;;;;;;;22.15;8.02;;;;;;;;;;5032869;28;20033;-50
2022/05/08 02:01:04;;;;;;;11.52;7.30;;;;;;;;;;5033231;28;20057;-51
2022/05/08 02:03:31;;;;;;;9.25;7.13;;;;;;;;;;5032891;28;20072;-52
2022/05/08 02:05:57;;;;;;;9.43;7.00;;;;;;;;;;5033013;28;20029;-52
2022/05/08 02:08:29;;;;;;;9.98;7.15;;;;;;;;;;5032988;28;20099;-52
2022/05/08 02:10:55;;;;;;;10.77;6.72;;;;;;;;;;5032780;28;20485;-51
2022/05/08 02:13:22;;;;;;;8.52;7.13;;;;;;;;;;5032506;28;20079;-51
2022/05/08 02:15:51;;;;;;;14.13;6.88;;;;;;;;;;5034727;28;20026;-57
2022/05/08 02:18:17;;;;;;;12.02;7.00;;;;;;;;;;5054190;28;20037;-52
2022/05/08 02:20:46;;;;;;;14.68;6.50;;;;;;;;;;5054221;28;20037;-52
2022/05/08 02:23:12;;;;;;;11.60;6.93;;;;;;;;;;5054233;28;20029;-52
2022/05/08 02:25:39;;;;;;;11.50;7.07;;;;;;;;;;5054181;28;20067;-52
2022/05/08 02:28:11;;;;;;;11.98;7.90;;;;;;;;;;5054063;28;20060;-52
2022/05/08 02:30:37;;;;;;;11.15;7.50;;;;;;;;;;5054230;28;20476;-52
2022/05/08 02:33:06;;;;;;;11.10;6.68;;;;;;;;;;5037203;28;20065;-51
2022/05/08 02:35:35;;;;;;;14.10;7.18;;;;;;;;;;5053983;28;20619;-49
2022/05/08 02:38:02;;;;;;;19.30;9.02;;;;;;;;;;5054067;28;20065;-50
2022/05/08 02:40:29;;;;;;;8.80;6.32;;;;;;;;;;5053837;28;20028;-49
2022/05/08 02:43:01;;;;;;;9.10;6.13;;;;;;;;;;5037079;28;20045;-49
2022/05/08 02:45:27;;;;;;;;;;;;;;;;;;5054209;28;20039;-49
2022/05/08 02:47:53;;;;;;;10.57;5.97;;;;;;;;;;5053836;28;20007;-50
2022/05/08 02:50:20;;;;;;;12.02;6.03;;;;;;;;;;5037187;28;20045;-50
2022/05/08 02:52:47;;;;;;;12.00;6.30;;;;;;;;;;5035597;28;20049;-50
2022/05/08 03:00:43;;;;;;;12.73;6.30;;;;;;;;;;5036013;28;20088;-50
2022/05/08 03:03:09;;;;;;;10.68;6.72;;;;;;;;;;5035893;28;20449;-49
2022/05/08 03:05:36;;;;;;;9.85;6.32;;;;;;;;;;5035586;28;20021;-50
2022/05/08 03:08:04;;;;;;;9.90;6.68;;;;;;;;;;5035697;28;20392;-50
2022/05/08 03:11:25;;;;;;;11.73;6.20;;;;;;;;;;5035572;28;20022;-50
2022/05/08 03:13:17;;;;;;;12.10;5.72;;;;;;;;;;5035681;28;20068;-50
2022/05/08 03:15:43;;;;;;;9.18;6.10;;;;;;;;;;5017143;28;20042;-50
2022/05/08 03:18:09;;;;;;;8.88;5.63;;;;;;;;;;5035547;28;20071;-50
2022/05/08 03:20:35;;;;;;;12.05;6.53;;;;;;;;;;5035303;28;20030;-50
2022/05/08 03:23:02;;;;;;;9.82;5.47;;;;;;;;;;5033678;28;20041;-50
2022/05/08 03:25:28;;;;;;;8.93;6.50;;;;;;;;;;5035293;28;20026;-50
2022/05/08 03:27:54;;;;;;;9.95;5.63;;;;;;;;;;5035374;28;20036;-50
2022/05/08 03:30:21;;;;;;;10.93;6.53;;;;;;;;;;5035360;28;20488;-50
2022/05/08 03:32:47;;;;;;;9.90;5.47;;;;;;;;;;5049958;28;20061;-50
2022/05/08 03:35:13;;;;;;;10.05;6.25;;;;;;;;;;5035217;28;20033;-50
2022/05/08 03:37:38;;;;;;;8.20;5.43;;;14.10;99.90;;;;;;5035061;28;20025;-50
2022/05/08 03:40:05;;;;;;;12.13;5.97;;;14.10;99.90;;;;;;5035081;28;20110;-50
2022/05/08 03:42:31;;;;;;;10.50;5.65;;;;;;;;;;5016918;28;20197;-50
2022/05/08 03:44:57;;;;;;;14.13;5.25;;;14.10;99.90;;;;;;5033046;28;20073;-50
2022/05/08 03:47:23;;;;;;;13.27;6.10;;;14.00;99.90;;;;;;5035040;28;20084;-50
2022/05/08 03:49:49;;;;;;;11.10;5.65;;;14.10;99.90;;;;;;5034726;28;20032;-50
2022/05/08 03:52:14;;;;;;;11.15;5.90;;;14.00;99.90;;;;;;5032829;28;20046;-50
2022/05/08 03:54:40;;;;;;;9.25;5.57;;;14.00;99.90;;;;;;5034672;28;20059;-50
2022/05/08 03:57:06;;;;;;;10.82;6.20;;;13.90;99.90;;;;;;5034645;28;20041;-50
2022/05/08 03:59:32;;;;;;;9.13;5.80;;;14.00;99.90;;;;;;5034720;28;20030;-50
2022/05/08 04:01:57;;;;;;;13.45;6.38;;;14.20;99.90;;;;;;5042612;28;20488;-50
2022/05/08 04:04:23;;;;;;;10.15;6.00;;;14.30;99.90;;;;;;5054530;28;20025;-50
2022/05/08 04:06:49;;;;;;;11.30;5.97;;;14.50;99.90;;;;;;5085958;28;20439;-50
2022/05/08 04:09:16;;;;;;;12.10;6.90;;;14.40;99.90;;;;;;5054491;28;20078;-50
2022/05/08 04:11:42;;;;;;;9.68;5.55;;;14.50;99.90;;;;;;5085652;28;20044;-50
2022/05/08 04:14:08;;;;;;;10.90;6.38;;;14.50;99.90;;;;;;5054242;28;20174;-50
2022/05/08 04:16:35;;;;;;;12.15;5.80;;;14.50;99.90;;;;;;5054396;28;20036;-50
2022/05/08 04:19:00;;;;;;;11.55;6.75;;;14.60;99.90;;;;;;5054142;28;20056;-50
2022/05/08 04:21:27;;;;;;;9.95;6.45;;;14.60;99.90;;;;;;5054204;28;20476;-50
2022/05/08 04:26:37;;;;;;;12.13;6.30;;;14.70;99.90;;;;;;5054632;28;20036;-50
2022/05/08 04:29:03;;;;;;;12.45;6.00;;;14.70;99.90;;;;;;5054048;28;20104;-50
2022/05/08 04:31:29;;;;;;;9.93;5.72;;;14.70;99.90;;;;;;5035427;28;20477;-50
2022/05/08 04:33:55;;;;;;;9.25;5.38;;;14.60;99.90;;;;;;5053954;28;20064;-50
2022/05/08 04:36:21;;;;;;;10.60;6.40;;;14.50;99.90;;;;;;5054049;28;20122;-49
2022/05/08 04:38:46;;;;;;;13.85;6.85;;;14.60;99.90;;;;;;5053365;28;20071;-50
2022/05/08 04:41:12;;;;;;;10.63;6.15;;;14.60;99.90;;;;;;5053817;28;20071;-50
2022/05/08 04:43:39;;;;;;;16.05;7.05;;;14.90;99.90;;;;;;5053883;28;20025;-50
2022/05/08 04:46:04;;;;;;;10.75;7.65;;;15.20;99.90;;;;;;5053816;28;20048;-50
2022/05/08 04:48:30;;;;;;;20.33;10.32;;;15.20;99.90;;;;;;5053811;28;20465;-50
2022/05/08 04:50:56;;;;;;;15.10;8.75;;;15.30;99.90;;;;;;5053457;28;20489;-50
2022/05/08 04:53:22;;;;;;;15.13;7.88;;;15.20;99.90;;;;;;5085039;28;20041;-50
2022/05/08 04:55:48;;;;;;;15.18;6.78;;;15.20;99.90;;;;;;5035001;28;20044;-50
2022/05/08 04:58:13;;;;;;;8.32;5.57;;;15.30;99.90;;;;;;5034404;28;20033;-50
2022/05/08 05:00:39;;;;;;;8.90;5.75;;;15.40;99.90;;;;;;5053523;28;20029;-50
2022/05/08 05:03:05;;;;;;;11.00;6.63;;;15.40;99.90;;;;;;5034868;28;20037;-49
2022/05/08 05:05:31;;;;;;;9.38;6.18;;;15.50;99.90;;;;;;5018369;28;20032;-50
2022/05/08 05:07:56;;;;;;;11.32;6.65;;;15.70;99.90;;;;;;5053336;28;20404;-50
2022/05/08 05:10:22;;;;;;;10.93;5.60;;;15.60;99.90;;;;;;5053341;28;20033;-50
2022/05/08 05:12:48;;;;;;;9.80;4.68;;;15.80;99.90;;;;;;5051407;28;20554;-49
2022/05/08 05:15:14;;;;;;;10.20;5.30;;;15.90;99.90;;;;;;5053191;28;20035;-50
2022/05/08 05:17:40;;;;;;;7.22;4.15;;;15.90;99.90;;;;;;5051531;28;20084;-50
2022/05/08 05:20:07;;;;;;;11.25;4.35;;;15.90;99.90;;;;;;5053103;28;20154;-50
2022/05/08 05:22:32;;;;;;;7.75;4.55;;;16.00;99.90;;;;;;5051101;28;20041;-50
2022/05/08 05:24:58;;;;;;;13.05;6.82;;;16.10;99.90;;;;;;4978518;28;20030;-50
2022/05/08 05:27:25;;;;;;;12.15;5.07;;;16.00;99.90;;;;;;4978708;28;20708;-50
2022/05/08 05:29:51;;;;;;;11.00;5.43;;;16.20;99.90;;;;;;5011458;28;20033;-50
2022/05/08 05:32:17;;;;;;;8.57;5.82;;;16.30;99.90;;;;;;5011308;28;20041;-50
2022/05/08 05:34:43;;;;;;;11.88;6.07;;;16.60;99.90;;;;;;4977952;28;20461;-50
2022/05/08 05:37:09;;;;;;;10.13;5.78;;;16.60;99.90;;;;;;4994558;28;20046;-50
2022/05/08 05:39:35;;;;;;;10.40;5.68;;;16.70;99.90;;;;;;4978431;28;20528;-50
2022/05/08 05:42:00;;;;;;;11.77;5.93;;;16.90;99.90;;;;;;4978706;28;20037;-50
2022/05/08 05:44:26;;;;;;;13.18;6.22;;;17.20;99.90;;;;;;5011222;28;20037;-50
2022/05/08 05:49:38;;;;;;;12.40;5.65;;;17.10;99.90;;;;;;5011601;28;20044;-51
2022/05/08 05:52:06;;;;;;;12.45;5.57;;;17.30;99.90;;;;;;5015151;28;20029;-50
2022/05/08 05:54:32;;;;;;;13.38;6.00;;;17.60;99.90;;;;;;4982610;28;20058;-50
2022/05/08 05:56:58;;;;;;;14.35;5.70;;;17.60;99.90;;;;;;5015172;28;20046;-50
2022/05/08 05:59:23;;;;;;;9.23;6.40;;;17.90;99.90;;;;;;4998582;28;20125;-50
2022/05/08 06:01:49;;;;;;;10.32;6.15;;;18.10;99.90;;;;;;5025873;28;20032;-50
2022/05/08 06:04:15;;;;;;;9.75;5.32;;;17.90;99.90;;;;;;5056893;28;20073;-50
2022/05/08 06:06:40;;;;;;;11.25;5.90;;;17.90;99.90;;;;;;5053939;28;20480;-51
2022/05/08 06:09:07;;;;;;;25.98;8.23;;;18.20;99.90;;;;;;5055322;28;20029;-50
2022/05/08 06:11:33;;;;;;;10.82;5.90;;;18.20;99.90;;;;;;5056191;28;20040;-50
2022/05/08 06:13:59;;;;;;;10.38;6.07;;;18.00;99.90;;;;;;5055946;28;20392;-50
2022/05/08 06:16:25;;;;;;;9.77;5.90;;;18.20;99.90;;;;;;5056105;28;20108;-50
2022/05/08 06:18:50;;;;;;;9.43;6.03;;;18.40;99.90;;;;;;5056391;28;20081;-51
2022/05/08 06:21:16;;;;;;;8.70;5.47;;;18.60;99.90;;;;;;5054609;28;20068;-50
2022/05/08 06:23:42;;;;;;;10.00;5.50;;;18.90;99.90;;;;;;5056109;28;20036;-50
2022/05/08 06:26:07;;;;;;;11.77;5.63;;;19.00;99.90;;;;;;5054622;28;20043;-50
2022/05/08 06:28:34;;;;;;;13.52;6.50;;;19.60;99.90;;;;;;5056200;28;20113;-50
2022/05/08 06:31:00;;;;;;;13.55;5.63;;;19.20;99.90;;;;;;5053380;28;20041;-50
2022/05/08 06:33:27;;;;;;;9.40;5.97;;;19.40;99.90;;;;;;5055914;28;20040;-50
2022/05/08 06:35:54;;;;;;;10.90;5.95;;;19.60;99.90;;;;;;5056252;28;20032;-50
2022/05/08 06:38:20;;;;;;;13.27;5.80;;;;;;;;;;5070787;28;20045;-50
2022/05/08 06:40:46;;;;;;;11.07;5.72;;;;;;;;;;5053080;28;20021;-50
2022/05/08 06:43:12;;;;;;;13.73;5.47;;;19.90;99.90;;;;;;5036725;28;20163;-51
2022/05/08 06:45:37;;;;;;;18.08;6.90;;;19.90;99.90;;;;;;5055505;28;20101;-51
2022/05/08 06:48:06;;;;;;;10.07;5.63;;;20.30;99.90;;;;;;5053892;28;20499;-51
2022/05/08 06:50:33;;;;;;;11.88;5.47;;;20.10;99.90;;;;;;5053387;28;20103;-50
2022/05/08 06:52:59;;;;;;;11.88;5.40;;;20.40;99.90;;;;;;5055343;28;20132;-51
2022/05/08 06:55:25;;;;;;;11.40;6.03;;;20.30;99.90;;;;;;5052814;28;20117;-50
2022/05/08 06:57:50;;;;;;;13.73;6.13;;;20.40;99.90;;;;;;5086506;28;20046;-50
2022/05/08 07:03:07;;;;;;;8.52;4.75;;;20.70;99.90;;;;;;5054594;28;20031;-50
2022/05/08 07:05:38;;;;;;;13.43;4.65;;;20.50;99.90;;;;;;5051596;28;20036;-51
2022/05/08 07:08:04;;;;;;;9.32;4.57;;;20.50;99.90;;;;;;5029903;28;20053;-50
2022/05/08 07:10:29;;;;;;;6.90;4.22;;;20.50;99.90;;;;;;5031351;28;20034;-51
2022/05/08 07:12:56;;;;;;;8.35;4.75;;;20.70;99.90;;;;;;5025807;28;20059;-51
2022/05/08 07:15:22;;;;;;;9.95;4.28;;;20.50;99.90;;;;;;5031075;28;20033;-50
2022/05/08 07:17:48;;;;;;;15.43;4.63;;;;;;;;;;5012500;28;20049;-49
2022/05/08 07:20:14;;;;;;;8.10;4.95;;;;;;;;;;4996875;28;20033;-50
2022/05/08 07:22:40;;;;;;;8.63;5.10;;;21.30;99.90;;;;;;5006303;28;20099;-50
2022/05/08 07:25:06;;;;;;;7.43;4.25;;;21.50;99.90;;;;;;4956269;28;20043;-50
2022/05/08 07:27:36;;;;;;;6.15;3.83;;;21.70;99.10;;;;;;4942508;28;20033;-49
2022/05/08 07:30:04;;;;;;;6.28;4.30;;;22.00;99.90;;;;;;5031698;28;20040;-49
2022/05/08 07:32:30;;;;;;;9.15;4.30;;;22.30;99.90;;;;;;5031494;28;20128;-50
2022/05/08 07:37:41;;;;;;;6.88;4.25;;;21.80;99.90;;;;;;5010605;28;20439;-49
2022/05/08 07:40:07;;;;;;;6.35;3.97;;;;;;;;;;5051691;28;20049;-49
2022/05/08 07:42:33;;;;;;;5.70;4.13;;;;;;;;;;5051860;28;20033;-50
2022/05/08 07:44:59;;;;;;;8.00;4.40;;;;;;;;;;5052991;28;20053;-49
2022/05/08 07:47:25;;;;;;;6.00;3.67;;;;;;;;;;5053904;28;20017;-49
2022/05/08 07:49:51;;;;;;;5.93;3.50;;;21.50;99.90;;;;;;5053762;28;20074;-49
2022/05/08 07:52:17;;;;;;;8.73;3.88;;;21.40;96.30;;;;;;5051937;28;20432;-49
2022/05/08 07:54:45;;;;;;;6.43;4.50;;;21.70;97.20;;;;;;5013476;28;1176715;-49
2022/05/08 07:57:10;;;;;;;9.88;4.40;;;22.30;96.80;;;;;;5087088;28;20389;-49
2022/05/08 07:59:36;;;;;;;6.13;3.45;;;22.40;96.70;;;;;;5054671;28;20036;-50
2022/05/08 08:02:03;;;;;;;6.03;3.90;;;22.10;96.80;;;;;;5050605;28;20047;-47
2022/05/08 08:04:29;;;;;;;10.77;4.57;;;21.90;96.60;;;;;;5041722;28;20041;-50
2022/05/08 08:06:55;;;;;;;9.00;3.90;;;22.30;96.70;;;;;;5049528;28;20087;-50
2022/05/08 08:09:20;;;;;;;7.00;4.07;;;22.40;96.70;;;;;;5068249;28;20033;-50
2022/05/08 08:11:47;;;;;;;8.25;4.18;;;22.40;96.10;;;;;;5054576;28;20511;-50
2022/05/08 08:14:13;;;;;;;6.60;3.80;;;22.80;96.70;;;;;;5035243;28;20049;-50
2022/05/08 08:16:39;;;;;;;5.80;4.10;;;22.60;96.10;;;;;;5068959;28;20040;-51
2022/05/08 08:19:05;;;;;;;6.30;4.20;;;;;;;;;;5068412;28;20086;-51
2022/05/08 08:21:33;;;;;;;8.10;4.05;;;23.00;96.10;;;;;;5054373;28;20082;-50
2022/05/08 08:23:59;;;;;;;4.63;3.90;;;23.00;95.70;;;;;;5053334;28;20051;-50
2022/05/08 08:26:25;;;;;;;8.25;4.93;;;;;;;;;;5054192;28;20025;-50
2022/05/08 08:28:51;;;;;;;9.43;4.97;;;23.30;95.80;;;;;;5054221;28;20107;-50
2022/05/08 08:31:17;;;;;;;9.27;4.88;;;;;;;;;;5051987;28;20029;-50
2022/05/08 08:33:44;;;;;;;8.80;4.90;;;24.50;95.90;;;;;;5051557;28;20484;-50
2022/05/08 08:36:11;;;;;;;7.28;4.50;;;24.10;95.30;;;;;;5053389;28;20442;-50
2022/05/08 08:38:38;;;;;;;9.10;5.13;;;23.50;95.50;;;;;;5053570;28;20436;-50
2022/05/08 08:41:04;;;;;;;7.80;4.68;;;23.70;94.70;;;;;;5053562;28;20068;-50
2022/05/08 08:47:42;;;;;;;9.88;5.22;;;23.80;94.20;;;;;;5034716;28;20852;-50
2022/05/08 08:49:12;;;;;;;7.05;4.07;;;24.00;94.30;;;;;;5051262;28;20036;-50
2022/05/08 08:51:39;;;;;;;9.13;4.53;;;24.10;95.40;;;;;;5052940;28;20087;-50
2022/05/08 08:54:04;;;;;;;8.43;4.75;;;24.60;94.70;;;;;;5054924;28;20052;-50
2022/05/08 08:56:31;;;;;;;8.05;4.47;;;24.50;93.90;;;;;;5016961;28;20051;-50
2022/05/08 08:58:57;;;;;;;6.75;4.18;;;24.30;94.50;;;;;;5053342;28;20033;-50
2022/05/08 09:01:22;;;;;;;7.53;4.82;;;24.50;93.30;;;;;;5050938;28;20219;-50
2022/05/08 09:03:48;;;;;;;9.25;5.43;;;;;;;;;;5053834;28;20025;-50
2022/05/08 09:06:14;;;;;;;7.45;4.68;;;;;;;;;;5051627;28;20064;-50
2022/05/08 09:08:41;;;;;;;7.00;4.30;;;;;;;;;;5053333;28;20438;-50
2022/05/08 09:11:07;;;;;;;9.38;4.70;;;;;;;;;;5052806;28;20533;-50
2022/05/08 09:13:47;;;;;;;7.72;4.75;;;25.60;92.00;;;;;;5052672;28;20056;-50
2022/05/08 09:16:13;;;;;;;5.55;4.22;;;25.70;92.10;;;;;;5067484;28;20041;-51
2022/05/08 09:18:48;;;;;;;8.10;5.25;;;25.60;92.30;;;;;;5048171;28;20566;-50
2022/05/08 09:22:11;;;;;;;10.07;5.43;;;25.90;92.70;;;;;;5048342;28;20179;-50
2022/05/08 09:24:11;;;;;;;7.07;4.22;;;26.40;91.90;;;;;;5025907;28;20037;-50
2022/05/08 09:26:37;;;;;;;8.45;4.40;;;26.30;92.30;;;;;;5031529;28;20488;-50
2022/05/08 09:29:04;;;;;;;8.15;4.18;;;26.50;91.60;;;;;;5065336;28;20117;-50
2022/05/08 09:31:43;;;;;;;7.90;4.90;;;26.20;91.50;;;;;;5041488;28;20080;-50
2022/05/08 09:34:09;;;;;;;9.23;4.13;;;26.30;91.50;;;;;;5053207;28;20044;-50
2022/05/08 09:36:35;;;;;;;9.95;4.45;;;;;;;;;;5051251;28;20072;-50
2022/05/08 09:39:02;;;;;;;7.65;3.97;;;27.10;90.60;;;;;;5053041;28;20037;-50
2022/05/08 09:41:34;;;;;;;7.45;3.97;;;26.40;91.30;;;;;;5031028;28;20500;-50
2022/05/08 09:44:12;;;;;;;;;;;26.80;90.50;;;;;;5030743;28;20034;-50
2022/05/08 09:46:39;;;;;;;7.03;5.00;;;26.20;90.50;;;;;;4983725;28;19910;-50
2022/05/08 09:49:06;;;;;;;7.82;4.03;;;27.10;90.50;;;;;;4987369;28;20117;-50
2022/05/08 09:51:36;;;;;;;5.68;4.30;;;26.60;90.30;;;;;;5010679;28;20034;-51
2022/05/08 09:54:02;;;;;;;5.15;3.55;;;27.30;90.70;;;;;;5010356;28;20061;-51
2022/05/08 09:56:28;;;;;;;7.13;3.63;;;27.80;93.90;;;;;;5010661;28;20117;-50
2022/05/08 09:58:54;;;;;;;7.25;3.42;;;27.30;90.60;;;;;;4992155;28;20046;-50
2022/05/08 10:01:20;;;;;;;14.75;4.57;;;;;;;;;;5011105;28;20065;-50
2022/05/08 10:03:47;;;;;;;6.82;3.40;;;;;;;;;;5010847;28;20030;-50
2022/05/08 10:06:14;;;;;;;9.13;3.75;;;;;;;;;;5011104;28;20042;-50
2022/05/08 10:08:41;;;;;;;6.80;3.42;;;;;;;;;;5010961;28;20482;-50
2022/05/08 10:16:40;;;;;;;8.70;3.15;;;;;;;;;;5050800;28;20473;-50
2022/05/08 10:19:24;;;;;;;8.40;3.83;;;;;;;;;;5052551;28;20538;-50
2022/05/08 10:21:56;;;;;;;4.35;3.20;;;;;;;;;;5052708;28;20099;-50
2022/05/08 10:24:30;;;;;;;8.05;2.88;;;;;;;;;;5052699;28;20037;-50
2022/05/08 10:27:14;;;;;;;6.97;3.38;;;;;;;;;;5052729;28;20056;-50
2022/05/08 10:29:49;;;;;;;7.90;3.22;;;28.20;88.00;;;;;;5052788;28;20033;-50
2022/05/08 10:32:31;;;;;;;5.00;3.00;;;28.20;85.70;;;;;;5050728;28;20037;-50
2022/05/08 10:35:23;;;;;;;6.43;3.20;;;28.10;85.60;;;;;;5050952;28;20484;-51
2022/05/08 10:38:16;;;;;;;6.43;3.28;;;28.10;84.20;;;;;;5055769;28;20052;-50
2022/05/08 10:40:42;;;;;;;7.30;3.38;;;27.90;84.50;;;;;;5055810;28;20036;-50
2022/05/08 10:43:14;;;;;;;5.30;2.67;;;27.90;83.40;;;;;;5057008;28;20068;-48
2022/05/08 10:45:43;;;;;;;3.88;2.63;;;27.70;84.60;;;;;;5056284;28;20044;-46
2022/05/08 10:48:15;;;;;;;8.20;3.40;;;28.00;84.20;;;;;;5054585;28;20560;-46
2022/05/08 10:50:47;;;;;;;13.55;3.10;;;27.90;83.00;;;;;;5055173;28;20024;-48
2022/05/08 10:53:26;;;;;;;5.53;3.20;;;28.20;82.80;;;;;;5054817;28;20124;-48
2022/05/08 10:55:58;;;;;;;4.55;3.05;;;28.70;83.90;;;;;;5055357;28;20037;-48
2022/05/08 10:58:24;;;;;;;10.43;4.70;;;28.60;83.70;;;;;;5070736;28;20107;-49
2022/05/08 11:00:55;;;;;;;5.45;2.80;;;28.10;83.50;;;;;;5056359;28;20465;-48
2022/05/08 11:03:25;;;;;;;6.32;3.15;;;27.90;82.50;;;;;;5055898;28;20056;-48
2022/05/08 11:05:52;;;;;;;5.78;3.00;;;28.20;82.80;;;;;;5055938;28;20104;-47
2022/05/08 11:08:23;;;;;;;6.30;2.97;;;28.40;81.50;;;;;;5056011;28;20064;-47
2022/05/08 11:10:57;;;;;;;5.63;3.22;;;28.80;82.50;;;;;;5070694;28;20041;-47
2022/05/08 11:13:23;;;;;;;4.97;2.72;;;28.50;81.00;;;;;;5055762;28;20511;-48
2022/05/08 11:15:50;;;;;;;9.05;3.50;;;28.60;80.50;;;;;;5056094;28;20052;-49
2022/05/08 11:18:18;;;;;;;7.40;3.30;;;28.40;80.40;;;;;;5055325;28;20108;-48
2022/05/08 11:20:57;;;;;;;4.97;2.90;;;27.80;80.00;;;;;;5055667;28;20060;-48
2022/05/08 11:23:24;;;;;;;6.68;3.50;;;28.40;80.50;;;;;;5055709;28;20492;-48
2022/05/08 11:25:53;;;;;;;7.60;3.60;;;28.20;81.40;;;;;;5055658;28;20028;-48
2022/05/08 11:28:22;;;;;;;10.75;4.10;;;28.10;81.50;;;;;;5055499;28;20111;-45
2022/05/08 11:30:49;;;;;;;7.05;2.95;;;28.60;81.70;;;;;;5055361;28;20040;-45
2022/05/08 11:36:05;;;;;;;11.80;3.53;;;28.20;80.30;;;;;;5055763;28;20035;-45
2022/05/08 11:38:50;;;;;;;4.80;2.88;;;28.70;80.70;;;;;;5055551;28;20103;-45
2022/05/08 11:41:27;;;;;;;7.22;3.38;;;28.70;80.70;;;;;;5055208;28;20500;-46
2022/05/08 11:43:55;;;;;;;6.35;3.33;;;28.40;81.90;;;;;;5055361;28;20025;-45
2022/05/08 11:46:39;;;;;;;6.85;2.95;;;29.00;82.10;;;;;;5069887;28;20033;-45
2022/05/08 11:49:16;;;;;;;4.43;2.55;;;28.80;79.90;;;;;;5054400;28;20033;-45
2022/05/08 11:51:50;;;;;;;5.63;2.72;;;28.50;81.40;;;;;;5055418;28;20029;-45
2022/05/08 11:54:21;;;;;;;7.00;3.10;;;28.50;80.30;;;;;;5054926;28;20045;-45
2022/05/08 11:56:51;;;;;;;6.45;2.97;;;28.50;80.00;;;;;;5055063;28;20090;-45
2022/05/08 11:59:22;;;;;;;5.28;3.30;;;28.20;79.10;;;;;;5055311;28;20067;-45
2022/05/08 12:01:53;;;;;;;3.90;3.33;;;28.00;80.00;;;;;;5055039;28;20035;-45
2022/05/08 12:04:27;;;;;;;4.65;3.10;;;28.00;79.80;;;;;;5054764;28;20469;-45
2022/05/08 12:07:10;;;;;;;6.03;3.15;;;28.10;79.00;;;;;;5055138;28;20028;-46
2022/05/08 12:09:37;;;;;;;3.42;2.45;;;27.80;79.10;;;;;;5054812;28;20052;-46
2022/05/08 12:12:26;;;;;;;5.75;2.70;;;28.20;80.30;;;;;;5054687;28;20024;-46
2022/05/08 12:14:59;;;;;;;5.97;2.90;;;27.50;81.70;;;;;;5054830;28;20389;-47
2022/05/08 12:17:26;;;;;;;5.65;2.95;;;27.80;80.30;;;;;;5054681;28;20032;-47
2022/05/08 12:19:57;;;;;;;6.43;2.88;;;27.70;80.60;;;;;;5054596;28;20033;-46
2022/05/08 12:22:24;;;;;;;5.25;2.97;;;27.60;80.60;;;;;;5054468;28;20025;-47
2022/05/08 12:24:52;;;;;;;9.70;4.30;;;27.80;80.50;;;;;;5054899;28;20036;-46
2022/05/08 12:27:18;;;;;;;7.90;3.10;;;28.10;80.60;;;;;;5054262;28;20537;-47
2022/05/08 12:29:46;;;;;;;11.35;4.88;;;27.90;80.00;;;;;;5054523;28;20162;-47
2022/05/08 12:32:16;;;;;;;14.15;6.70;;;27.40;79.10;;;;;;5054455;28;20037;-48
2022/05/08 12:34:43;;;;;;;14.15;4.32;;;27.40;78.90;;;;;;5068934;28;20037;-47
2022/05/08 12:37:10;;;;;;;6.45;3.20;;;26.90;79.90;;;;;;5054202;28;20029;-46
2022/05/08 12:39:36;;;;;;;8.63;4.57;;;26.80;80.20;;;;;;5069543;28;20496;-46
2022/05/08 12:42:02;;;;;;;7.72;3.55;;;27.10;81.40;;;;;;5054062;28;20029;-47
2022/05/08 12:44:28;;;;;;;6.95;3.08;;;27.10;80.00;;;;;;5054079;28;20017;-47
2022/05/08 12:46:54;;;;;;;6.60;3.67;;;27.10;79.70;;;;;;5054334;28;20041;-46
2022/05/08 12:49:20;;;;;;;6.95;3.30;;;27.30;79.90;;;;;;5068700;28;20039;-46
2022/05/08 12:51:46;;;;;;;7.28;3.80;;;27.30;79.50;;;;;;5054016;28;20036;-47
2022/05/08 12:54:11;;;;;;;7.05;3.70;;;27.20;79.50;;;;;;5053740;28;20048;-47
2022/05/08 12:56:37;;;;;;;5.00;3.42;;;27.50;79.70;;;;;;5053739;28;20028;-48
2022/05/08 13:01:51;;;;;;;7.63;3.15;;;27.70;80.40;;;;;;5053954;28;20118;-47
2022/05/08 13:04:17;;;;;;;8.52;3.20;;;27.60;79.80;;;;;;5053593;28;20029;-46
2022/05/08 13:06:43;;;;;;;6.20;3.15;;;27.50;80.10;;;;;;5053697;28;20531;-46
2022/05/08 13:09:09;;;;;;;10.27;3.60;;;27.20;80.50;;;;;;5054032;28;20032;-47
2022/05/08 13:11:36;;;;;;;7.45;3.47;;;27.40;79.70;;;;;;5051154;28;20044;-46
2022/05/08 13:14:03;;;;;;;8.10;3.50;;;;;;;;;;5068228;28;20049;-48
2022/05/08 13:16:29;;;;;;;29.48;12.77;;;28.00;87.80;;;;;;5053722;28;20033;-47
2022/05/08 13:18:55;;;;;;;7.70;3.90;;;28.00;89.20;;;;;;5052830;28;20027;-48
2022/05/08 13:21:21;;;;;;;16.27;7.68;;;;;;;;;;5068256;28;20067;-47
2022/05/08 13:23:47;;;;;;;9.57;4.40;;;;;;;;;;5052577;28;20036;-47
2022/05/08 13:26:14;;;;;;;13.48;6.53;;;28.00;99.90;;;;;;5052135;28;20242;-46
2022/05/08 13:28:40;;;;;;;10.57;4.85;;;;;;;;;;5052029;28;20063;-47
2022/05/08 13:31:06;;;;;;;9.68;4.40;;;;;;;;;;5052150;28;20029;-47
2022/05/08 13:33:32;;;;;;;8.82;4.32;;;;;;;;;;5049342;28;20410;-48
2022/05/08 13:35:59;;;;;;;7.80;3.70;;;;;;;;;;5049636;28;20473;-47
2022/05/08 13:38:26;;;;;;;11.52;4.38;;;;;;;;;;5052041;28;20025;-48
2022/05/08 13:40:59;;;;;;;8.68;3.30;;;28.50;99.90;;;;;;5050509;28;20120;-47